createdAt,value
2023-04-18T00:01:42.804Z,74.82
2023-04-18T00:04:09.721Z,74.38
2023-04-18T00:06:36.449Z,74.80
2023-04-18T00:09:03.958Z,74.69
2023-04-18T00:11:30.575Z,74.54
2023-04-18T00:14:00.502Z,74.70
2023-04-18T00:16:28.301Z,74.93
2023-04-18T00:18:55.477Z,74.90
2023-04-18T00:21:22.744Z,74.58
2023-04-18T00:23:49.446Z,74.56
2023-04-18T00:26:16.011Z,74.39
2023-04-18T00:28:42.622Z,74.40
2023-04-18T00:31:09.205Z,75.05
2023-04-18T00:33:35.781Z,74.32
2023-04-18T00:36:02.392Z,74.47
2023-04-18T00:38:28.952Z,74.63
2023-04-18T00:40:55.577Z,74.22
2023-04-18T00:43:25.440Z,74.64
2023-04-18T00:45:52.572Z,74.50
2023-04-18T00:48:19.245Z,74.82
2023-04-18T00:50:45.930Z,75.12
2023-04-18T00:53:13.558Z,75.70
2023-04-18T00:55:41.401Z,74.66
2023-04-18T00:58:08.173Z,75.16
2023-04-18T01:00:34.799Z,75.56
2023-04-18T01:03:01.516Z,75.88
2023-04-18T01:05:28.281Z,75.36
2023-04-18T01:08:01.059Z,75.32
2023-04-18T01:10:28.798Z,75.90
2023-04-18T01:13:15.150Z,75.60
2023-04-18T01:15:43.740Z,76.02
2023-04-18T01:18:11.774Z,75.85
2023-04-18T01:20:41.773Z,75.67
2023-04-18T01:23:10.600Z,75.79
2023-04-18T01:25:38.118Z,75.74
2023-04-18T01:28:06.216Z,75.13
2023-04-18T01:30:33.871Z,75.60
2023-04-18T01:33:01.468Z,74.84
2023-04-18T01:35:28.621Z,74.84
2023-04-18T01:37:55.765Z,75.17
2023-04-18T01:40:22.414Z,75.35
2023-04-18T01:42:49.113Z,75.23
2023-04-18T01:45:16.618Z,74.91
2023-04-18T01:47:43.750Z,75.51
2023-04-18T01:50:10.944Z,75.91
2023-04-18T01:52:37.509Z,75.85
2023-04-18T01:55:04.588Z,75.28
2023-04-18T01:57:31.157Z,75.64
2023-04-18T01:59:57.841Z,75.94
2023-04-18T02:02:24.584Z,75.25
2023-04-18T02:04:51.316Z,75.96
2023-04-18T02:07:17.844Z,75.86
2023-04-18T02:09:44.367Z,75.74
2023-04-18T02:12:12.659Z,75.79
2023-04-18T02:14:39.286Z,76.42
2023-04-18T02:17:05.860Z,76.19
2023-04-18T02:19:32.376Z,75.45
2023-04-18T02:21:59.065Z,75.77
2023-04-18T02:24:25.782Z,75.83
2023-04-18T02:26:52.349Z,76.07
2023-04-18T02:29:18.965Z,75.68
2023-04-18T02:31:45.677Z,75.71
2023-04-18T02:34:12.711Z,76.33
2023-04-18T02:36:39.543Z,75.94
2023-04-18T02:39:06.262Z,76.12
2023-04-18T02:41:34.727Z,77.15
2023-04-18T02:44:01.314Z,76.73
2023-04-18T02:46:28.013Z,76.63
2023-04-18T02:48:54.590Z,76.89
2023-04-18T02:51:21.295Z,76.73
2023-04-18T02:53:48.404Z,76.71
2023-04-18T02:56:17.146Z,76.73
2023-04-18T02:58:43.757Z,76.95
2023-04-18T03:01:10.407Z,76.83
2023-04-18T03:03:36.993Z,76.73
2023-04-18T03:06:03.740Z,76.43
2023-04-18T03:08:30.261Z,77.04
2023-04-18T03:10:56.843Z,77.78
2023-04-18T03:13:23.388Z,77.64
2023-04-18T03:15:50.083Z,77.61
2023-04-18T03:18:16.947Z,76.93
2023-04-18T03:20:43.595Z,77.70
2023-04-18T03:23:10.262Z,76.44
2023-04-18T03:25:37.227Z,76.97
2023-04-18T03:28:03.870Z,76.32
2023-04-18T03:30:31.393Z,77.10
2023-04-18T03:32:58.692Z,77.25
2023-04-18T03:35:25.624Z,77.05
2023-04-18T03:37:52.191Z,77.07
2023-04-18T03:40:19.125Z,76.90
2023-04-18T03:42:45.752Z,77.76
2023-04-18T03:45:12.417Z,77.17
2023-04-18T03:47:39.083Z,76.66
2023-04-18T03:50:06.310Z,77.03
2023-04-18T03:52:32.886Z,77.37
2023-04-18T03:54:59.716Z,77.58
2023-04-18T03:57:26.422Z,77.89
2023-04-18T03:59:53.059Z,77.79
2023-04-18T04:02:19.736Z,77.58
2023-04-18T04:04:47.066Z,77.61
2023-04-18T04:07:13.922Z,78.13
2023-04-18T04:09:40.466Z,77.66
2023-04-18T04:12:07.049Z,77.62
2023-04-18T04:14:33.572Z,77.69
2023-04-18T04:17:00.231Z,78.10
2023-04-18T04:19:26.720Z,77.32
2023-04-18T04:21:53.328Z,78.04
2023-04-18T04:24:20.499Z,78.07
2023-04-18T04:26:48.749Z,77.56
2023-04-18T04:29:16.427Z,78.52
2023-04-18T04:31:43.095Z,78.13
2023-04-18T04:34:09.758Z,78.04
2023-04-18T04:36:36.407Z,77.92
2023-04-18T04:39:05.913Z,78.33
2023-04-18T04:41:32.481Z,78.77
2023-04-18T04:43:59.666Z,78.65
2023-04-18T04:46:29.376Z,78.61
2023-04-18T04:48:56.379Z,79.20
2023-04-18T04:51:23.018Z,78.53
2023-04-18T04:53:49.602Z,78.86
2023-04-18T04:56:16.221Z,78.85
2023-04-18T04:58:42.794Z,78.50
2023-04-18T05:01:09.371Z,77.99
2023-04-18T05:03:36.703Z,78.53
2023-04-18T05:06:03.763Z,78.39
2023-04-18T05:08:30.466Z,77.99
2023-04-18T05:10:57.084Z,78.42
2023-04-18T05:13:23.639Z,78.93
2023-04-18T05:15:50.321Z,78.36
2023-04-18T05:18:16.941Z,77.38
2023-04-18T05:20:43.509Z,77.92
2023-04-18T05:23:10.223Z,77.26
2023-04-18T05:25:36.950Z,77.91
2023-04-18T05:28:08.272Z,78.36
2023-04-18T05:30:35.165Z,77.51
2023-04-18T05:33:01.823Z,77.57
2023-04-18T05:35:28.430Z,78.11
2023-04-18T05:37:54.982Z,77.66
2023-04-18T05:40:21.620Z,77.06
2023-04-18T05:42:48.119Z,77.46
2023-04-18T05:45:14.714Z,77.67
2023-04-18T05:47:42.507Z,77.04
2023-04-18T05:50:09.339Z,76.12
2023-04-18T05:52:38.128Z,76.51
2023-04-18T05:55:06.259Z,77.44
2023-04-18T05:57:33.047Z,76.37
2023-04-18T05:59:59.582Z,76.42
2023-04-18T06:02:26.566Z,76.34
2023-04-18T06:04:53.343Z,74.53
2023-04-18T06:07:21.403Z,74.03
2023-04-18T06:09:49.782Z,74.76
2023-04-18T06:12:16.530Z,73.36
2023-04-18T06:14:43.079Z,71.87
2023-04-18T06:17:10.311Z,72.67
2023-04-18T06:19:36.880Z,72.62
2023-04-18T06:22:03.521Z,72.72
2023-04-18T06:24:31.273Z,74.17
2023-04-18T06:26:58.132Z,73.40
2023-04-18T06:29:27.293Z,73.55
2023-04-18T06:31:54.193Z,72.45
2023-04-18T06:34:20.891Z,71.89
2023-04-18T06:36:47.477Z,72.25
2023-04-18T06:39:14.091Z,71.63
2023-04-18T06:41:40.882Z,71.41
2023-04-18T06:44:07.361Z,70.99
2023-04-18T06:46:34.059Z,70.25
2023-04-18T06:49:00.659Z,70.25
2023-04-18T06:51:27.501Z,70.09
2023-04-18T06:53:54.245Z,70.28
2023-04-18T06:56:21.240Z,68.10
2023-04-18T06:58:48.277Z,68.31
2023-04-18T07:01:15.046Z,68.93
2023-04-18T07:03:41.608Z,68.39
2023-04-18T07:06:10.506Z,67.78
2023-04-18T07:08:37.203Z,67.71
2023-04-18T07:11:03.743Z,67.66
2023-04-18T07:13:30.259Z,67.77
2023-04-18T07:15:56.917Z,68.52
2023-04-18T07:18:36.724Z,67.35
2023-04-18T07:21:07.474Z,68.71
2023-04-18T07:23:34.938Z,69.88
2023-04-18T07:26:02.895Z,68.79
2023-04-18T07:28:31.019Z,68.71
2023-04-18T07:30:58.087Z,67.51
2023-04-18T07:33:25.637Z,68.49
2023-04-18T07:35:53.100Z,66.59
2023-04-18T07:38:19.816Z,68.65
2023-04-18T07:40:46.382Z,67.00
2023-04-18T07:43:12.893Z,67.34
2023-04-18T07:45:39.582Z,67.18
2023-04-18T07:48:06.521Z,66.65
2023-04-18T07:50:33.096Z,64.75
2023-04-18T07:52:59.711Z,64.40
2023-04-18T07:55:26.433Z,63.82
2023-04-18T07:57:52.989Z,64.33
2023-04-18T08:00:19.830Z,62.47
2023-04-18T08:02:46.597Z,62.88
2023-04-18T08:05:13.407Z,63.39
2023-04-18T08:07:40.910Z,64.25
2023-04-18T08:10:07.982Z,61.84
2023-04-18T08:12:36.260Z,61.63
2023-04-18T08:15:03.643Z,62.11
2023-04-18T08:17:31.223Z,61.52
2023-04-18T08:19:57.863Z,59.46
2023-04-18T08:22:24.516Z,59.21
2023-04-18T08:25:03.851Z,59.97
2023-04-18T08:27:32.290Z,60.82
2023-04-18T08:29:58.880Z,60.20
2023-04-18T08:32:25.999Z,60.14
2023-04-18T08:34:52.618Z,59.38
2023-04-18T08:37:19.084Z,59.07
2023-04-18T08:39:45.785Z,59.63
2023-04-18T08:42:17.120Z,58.12
2023-04-18T08:44:45.114Z,57.65
2023-04-18T08:47:12.785Z,57.31
2023-04-18T08:49:40.107Z,57.49
2023-04-18T08:52:14.811Z,54.86
2023-04-18T08:54:42.854Z,56.70
2023-04-18T08:57:12.577Z,55.86
2023-04-18T08:59:40.218Z,54.94
2023-04-18T09:02:09.009Z,54.61
2023-04-18T09:04:41.400Z,54.93
2023-04-18T09:07:10.899Z,55.30
2023-04-18T09:09:53.957Z,55.69
2023-04-18T09:12:22.734Z,54.33
2023-04-18T09:14:51.561Z,54.58
2023-04-18T09:17:41.544Z,54.68
2023-04-18T09:20:10.872Z,54.70
2023-04-18T09:22:51.906Z,55.18
2023-04-18T09:25:34.930Z,53.16
2023-04-18T09:28:03.705Z,56.01
2023-04-18T09:30:39.350Z,55.32
2023-04-18T09:33:10.293Z,54.23
2023-04-18T09:35:38.040Z,54.98
2023-04-18T09:38:05.779Z,54.83
2023-04-18T09:40:32.925Z,53.71
2023-04-18T09:42:59.996Z,53.69
2023-04-18T09:45:27.247Z,53.10
2023-04-18T09:47:53.995Z,52.90
2023-04-18T09:50:20.940Z,53.15
2023-04-18T09:52:48.408Z,52.04
2023-04-18T09:55:19.956Z,53.14
2023-04-18T09:57:48.424Z,51.10
2023-04-18T10:00:24.437Z,53.20
2023-04-18T10:03:06.193Z,52.42
2023-04-18T10:05:35.958Z,50.83
2023-04-18T10:08:04.007Z,51.47
2023-04-18T10:10:30.714Z,51.85
2023-04-18T10:12:58.729Z,51.02
2023-04-18T10:15:27.477Z,51.28
2023-04-18T10:18:05.215Z,52.13
2023-04-18T10:20:35.199Z,52.19
2023-04-18T10:23:30.920Z,53.25
2023-04-18T10:25:58.457Z,52.58
2023-04-18T10:28:26.643Z,52.75
2023-04-18T10:31:03.794Z,52.76
2023-04-18T10:33:41.112Z,53.13
2023-04-18T10:36:09.031Z,53.43
2023-04-18T10:38:45.303Z,55.70
2023-04-18T10:41:25.433Z,54.84
2023-04-18T10:44:14.686Z,54.64
2023-04-18T10:46:51.087Z,54.14
2023-04-18T10:49:30.230Z,54.35
2023-04-18T10:52:00.206Z,55.43
2023-04-18T10:54:59.100Z,53.92
2023-04-18T10:57:37.839Z,52.05
2023-04-18T11:00:06.171Z,51.00
2023-04-18T11:02:33.663Z,50.35
2023-04-18T11:05:01.780Z,51.95
2023-04-18T11:07:48.779Z,50.68
2023-04-18T11:10:21.239Z,53.93
2023-04-18T11:12:48.278Z,52.66
2023-04-18T11:15:22.971Z,54.16
2023-04-18T11:18:03.937Z,54.32
2023-04-18T11:20:38.810Z,54.11
2023-04-18T11:23:25.150Z,53.45
2023-04-18T11:25:54.483Z,54.34
2023-04-18T11:28:22.364Z,53.94
2023-04-18T11:30:49.090Z,52.35
2023-04-18T11:33:15.812Z,54.50
2023-04-18T11:35:46.567Z,55.47
2023-04-18T11:38:15.838Z,51.71
2023-04-18T11:40:49.580Z,51.67
2023-04-18T11:43:21.508Z,56.80
2023-04-18T11:45:55.874Z,54.39
2023-04-18T11:48:23.117Z,52.45
2023-04-18T11:50:50.015Z,52.03
2023-04-18T11:53:35.015Z,51.58
2023-04-18T11:56:03.620Z,53.13
2023-04-18T11:58:34.374Z,52.22
2023-04-18T12:01:22.387Z,52.16
2023-04-18T12:04:08.642Z,52.13
2023-04-18T12:06:49.366Z,52.83
2023-04-18T12:09:17.253Z,52.29
2023-04-18T12:11:44.144Z,53.02
2023-04-18T12:14:21.655Z,53.50
2023-04-18T12:16:52.120Z,52.87
2023-04-18T12:19:20.787Z,53.45
2023-04-18T12:22:01.159Z,54.34
2023-04-18T12:24:31.996Z,52.37
2023-04-18T12:26:59.397Z,54.69
2023-04-18T12:29:28.887Z,54.41
2023-04-18T12:31:55.817Z,51.79
2023-04-18T12:34:22.400Z,53.70
2023-04-18T12:36:48.942Z,53.83
2023-04-18T12:39:15.529Z,54.22
2023-04-18T12:41:42.148Z,54.01
2023-04-18T12:44:09.365Z,54.34
2023-04-18T12:46:36.082Z,53.62
2023-04-18T12:49:02.668Z,53.42
2023-04-18T12:51:29.237Z,53.87
2023-04-18T12:53:56.739Z,52.69
2023-04-18T12:56:23.384Z,52.46
2023-04-18T12:58:49.894Z,53.65
2023-04-18T13:01:17.204Z,53.18
2023-04-18T13:03:45.617Z,53.52
2023-04-18T13:06:15.717Z,55.13
2023-04-18T13:08:42.704Z,52.85
2023-04-18T13:11:09.227Z,53.05
2023-04-18T13:13:36.302Z,54.83
2023-04-18T13:16:02.905Z,53.31
2023-04-18T13:18:29.502Z,52.08
2023-04-18T13:20:56.030Z,52.17
2023-04-18T13:23:22.680Z,52.24
2023-04-18T13:25:49.312Z,51.13
2023-04-18T13:28:15.937Z,53.10
2023-04-18T13:30:42.542Z,52.23
2023-04-18T13:33:10.301Z,54.05
2023-04-18T13:35:37.244Z,52.51
2023-04-18T13:38:04.091Z,53.21
2023-04-18T13:40:30.736Z,51.08
2023-04-18T13:42:57.371Z,53.08
2023-04-18T13:45:23.925Z,52.67
2023-04-18T13:47:51.007Z,53.50
2023-04-18T13:50:17.772Z,51.93
2023-04-18T13:52:44.683Z,51.50
2023-04-18T13:55:12.354Z,51.90
2023-04-18T13:57:39.255Z,52.11
2023-04-18T14:00:06.695Z,51.90
2023-04-18T14:02:33.450Z,55.82
2023-04-18T14:05:00.514Z,51.70
2023-04-18T14:07:27.283Z,53.69
2023-04-18T14:09:54.139Z,51.75
2023-04-18T14:12:21.044Z,51.45
2023-04-18T14:14:47.924Z,49.92
2023-04-18T14:17:14.656Z,51.39
2023-04-18T14:19:41.536Z,51.47
2023-04-18T14:22:08.050Z,50.82
2023-04-18T14:24:37.730Z,53.30
2023-04-18T14:27:04.362Z,49.93
2023-04-18T14:29:31.277Z,49.72
2023-04-18T14:31:57.934Z,49.89
2023-04-18T14:34:24.584Z,51.53
2023-04-18T14:36:51.168Z,50.50
2023-04-18T14:39:17.740Z,51.82
2023-04-18T14:41:45.901Z,47.85
2023-04-18T14:44:13.538Z,47.96
2023-04-18T14:46:40.164Z,48.96
2023-04-18T14:49:06.770Z,49.04
2023-04-18T14:51:33.342Z,48.13
2023-04-18T14:53:59.905Z,48.18
2023-04-18T14:56:26.964Z,46.59
2023-04-18T14:58:53.497Z,44.61
2023-04-18T15:01:20.128Z,43.03
2023-04-18T15:03:46.971Z,42.71
2023-04-18T15:06:13.722Z,43.59
2023-04-18T15:08:40.638Z,44.24
2023-04-18T15:11:08.199Z,43.23
2023-04-18T15:13:34.965Z,44.38
2023-04-18T15:16:01.924Z,40.72
2023-04-18T15:18:28.895Z,39.64
2023-04-18T15:20:57.042Z,41.37
2023-04-18T15:23:23.662Z,40.93
2023-04-18T15:25:50.225Z,40.32
2023-04-18T15:28:18.314Z,41.88
2023-04-18T15:30:45.858Z,41.67
2023-04-18T15:33:13.645Z,41.60
2023-04-18T15:35:40.309Z,39.44
2023-04-18T15:38:06.905Z,38.93
2023-04-18T15:40:33.601Z,40.19
2023-04-18T15:43:00.304Z,38.21
2023-04-18T15:45:26.858Z,37.23
2023-04-18T15:47:53.545Z,36.27
2023-04-18T15:50:20.515Z,37.13
2023-04-18T15:52:47.087Z,36.90
2023-04-18T15:55:13.746Z,37.85
2023-04-18T15:57:41.743Z,37.95
2023-04-18T16:00:13.996Z,37.48
2023-04-18T16:02:40.749Z,38.18
2023-04-18T16:05:08.527Z,38.99
2023-04-18T16:07:35.121Z,37.09
2023-04-18T16:10:03.659Z,40.15
2023-04-18T16:12:30.280Z,39.94
2023-04-18T16:14:56.870Z,39.18
2023-04-18T16:17:23.639Z,39.26
2023-04-18T16:19:50.247Z,37.25
2023-04-18T16:22:16.824Z,38.52
2023-04-18T16:24:43.410Z,39.39
2023-04-18T16:27:09.959Z,37.72
2023-04-18T16:29:36.498Z,37.74
2023-04-18T16:32:03.090Z,37.53
2023-04-18T16:34:29.691Z,39.88
2023-04-18T16:36:56.228Z,36.49
2023-04-18T16:39:22.819Z,36.65
2023-04-18T16:41:49.376Z,36.96
2023-04-18T16:44:16.187Z,40.20
2023-04-18T16:46:43.087Z,43.48
2023-04-18T16:49:09.852Z,45.71
2023-04-18T16:51:37.883Z,45.56
2023-04-18T16:54:06.294Z,48.21
2023-04-18T16:56:34.139Z,48.88
2023-04-18T16:59:00.791Z,49.45
2023-04-18T17:01:27.368Z,50.07
2023-04-18T17:03:54.035Z,50.89
2023-04-18T17:06:22.707Z,50.33
2023-04-18T17:08:49.554Z,51.34
2023-04-18T17:11:16.079Z,52.37
2023-04-18T17:13:42.734Z,52.90
2023-04-18T17:16:09.296Z,52.18
2023-04-18T17:18:35.941Z,52.59
2023-04-18T17:21:02.532Z,52.58
2023-04-18T17:23:30.391Z,52.68
2023-04-18T17:25:58.804Z,52.70
2023-04-18T17:28:25.369Z,52.97
2023-04-18T17:30:52.063Z,53.22
2023-04-18T17:33:18.625Z,54.32
2023-04-18T17:35:45.170Z,54.13
2023-04-18T17:38:11.823Z,54.58
2023-04-18T17:40:39.679Z,54.67
2023-04-18T17:43:06.335Z,54.09
2023-04-18T17:45:32.902Z,55.01
2023-04-18T17:48:02.154Z,54.31
2023-04-18T17:50:28.809Z,55.20
2023-04-18T17:52:55.686Z,55.31
2023-04-18T17:55:22.279Z,55.48
2023-04-18T17:57:49.051Z,55.49
2023-04-18T18:00:16.036Z,55.59
2023-04-18T18:02:42.948Z,55.78
2023-04-18T18:05:14.271Z,57.09
2023-04-18T18:07:44.125Z,56.99
2023-04-18T18:10:11.501Z,56.89
2023-04-18T18:12:38.317Z,57.48
2023-04-18T18:15:05.578Z,58.24
2023-04-18T18:17:32.150Z,58.15
2023-04-18T18:19:58.764Z,58.61
2023-04-18T18:22:26.153Z,57.83
2023-04-18T18:24:52.900Z,58.44
2023-04-18T18:27:20.382Z,59.22
2023-04-18T18:29:48.098Z,60.15
2023-04-18T18:32:15.147Z,60.33
2023-04-18T18:34:41.740Z,61.03
2023-04-18T18:37:08.352Z,61.20
2023-04-18T18:39:36.664Z,60.87
2023-04-18T18:42:03.379Z,61.44
2023-04-18T18:44:30.610Z,61.72
2023-04-18T18:46:58.790Z,62.52
2023-04-18T18:49:26.610Z,62.38
2023-04-18T18:51:53.563Z,62.73
2023-04-18T18:54:20.130Z,62.68
2023-04-18T18:56:46.877Z,63.32
2023-04-18T18:59:13.661Z,63.23
2023-04-18T19:01:40.857Z,64.16
2023-04-18T19:04:07.850Z,64.41
2023-04-18T19:06:35.156Z,64.67
2023-04-18T19:09:01.802Z,64.54
2023-04-18T19:11:29.224Z,64.50
2023-04-18T19:13:55.804Z,64.71
2023-04-18T19:16:22.634Z,64.64
2023-04-18T19:18:50.649Z,64.75
2023-04-18T19:21:17.763Z,64.57
2023-04-18T19:23:44.531Z,65.06
2023-04-18T19:26:11.107Z,65.45
2023-04-18T19:28:37.748Z,65.70
2023-04-18T19:31:04.471Z,65.19
2023-04-18T19:33:31.087Z,66.08
2023-04-18T19:35:58.223Z,65.82
2023-04-18T19:38:24.875Z,66.24
2023-04-18T19:40:51.551Z,66.28
2023-04-18T19:43:18.162Z,66.26
2023-04-18T19:45:44.942Z,66.97
2023-04-18T19:48:11.992Z,66.64
2023-04-18T19:50:42.319Z,66.29
2023-04-18T19:53:08.976Z,67.41
2023-04-18T19:55:35.682Z,67.42
2023-04-18T19:58:02.229Z,67.25
2023-04-18T20:00:29.383Z,67.92
2023-04-18T20:02:58.346Z,67.76
2023-04-18T20:05:25.367Z,68.29
2023-04-18T20:07:51.983Z,68.37
2023-04-18T20:10:22.339Z,68.55
2023-04-18T20:12:50.073Z,68.25
2023-04-18T20:15:16.992Z,68.38
2023-04-18T20:17:43.589Z,68.24
2023-04-18T20:20:11.415Z,68.43
2023-04-18T20:22:40.331Z,68.96
2023-04-18T20:25:07.312Z,68.96
2023-04-18T20:27:33.913Z,68.66
2023-04-18T20:30:00.482Z,69.13
2023-04-18T20:32:27.256Z,69.79
2023-04-18T20:34:53.966Z,69.79
2023-04-18T20:37:20.742Z,69.87
2023-04-18T20:39:47.722Z,70.13
2023-04-18T20:42:14.372Z,70.02
2023-04-18T20:44:44.152Z,70.32
2023-04-18T20:47:10.739Z,70.50
2023-04-18T20:49:38.121Z,70.75
2023-04-18T20:52:08.249Z,70.75
2023-04-18T20:54:34.767Z,70.71
2023-04-18T20:57:01.522Z,71.07
2023-04-18T20:59:28.288Z,71.36
2023-04-18T21:01:54.932Z,71.33
2023-04-18T21:04:21.655Z,71.30
2023-04-18T21:06:48.412Z,71.74
2023-04-18T21:09:15.297Z,71.54
2023-04-18T21:11:42.115Z,72.02
2023-04-18T21:14:08.715Z,72.12
2023-04-18T21:16:36.756Z,72.67
2023-04-18T21:19:03.358Z,72.99
2023-04-18T21:21:30.107Z,73.00
2023-04-18T21:23:56.659Z,72.66
2023-04-18T21:26:23.269Z,73.11
2023-04-18T21:29:00.707Z,72.72
2023-04-18T21:31:30.148Z,72.62
2023-04-18T21:33:58.653Z,72.64
2023-04-18T21:36:27.127Z,73.07
2023-04-18T21:38:56.022Z,73.30
2023-04-18T21:41:23.199Z,73.75
2023-04-18T21:43:49.964Z,73.34
2023-04-18T21:46:17.231Z,73.86
2023-04-18T21:48:46.235Z,74.03
2023-04-18T21:51:15.353Z,74.18
2023-04-18T21:53:42.449Z,74.72
2023-04-18T21:56:09.354Z,74.93
2023-04-18T21:58:35.887Z,74.93
2023-04-18T22:01:02.882Z,74.34
2023-04-18T22:03:30.250Z,74.46
2023-04-18T22:05:57.604Z,74.58
2023-04-18T22:08:28.568Z,74.99
2023-04-18T22:10:56.364Z,75.61
2023-04-18T22:13:23.646Z,76.08
2023-04-18T22:15:51.503Z,76.01
2023-04-18T22:18:19.101Z,75.64
2023-04-18T22:20:46.909Z,76.03
2023-04-18T22:23:13.947Z,76.39
2023-04-18T22:25:40.897Z,76.29
2023-04-18T22:28:07.615Z,76.49
2023-04-18T22:30:34.630Z,76.10
2023-04-18T22:33:01.309Z,76.09
2023-04-18T22:35:28.062Z,76.49
2023-04-18T22:37:55.571Z,76.74
2023-04-18T22:40:22.277Z,77.00
2023-04-18T22:42:48.836Z,77.18
2023-04-18T22:45:15.602Z,77.41
2023-04-18T22:47:42.234Z,77.12
2023-04-18T22:50:09.256Z,77.18
2023-04-18T22:52:35.934Z,77.38
2023-04-18T22:55:03.454Z,77.40
2023-04-18T22:57:30.275Z,77.54
2023-04-18T22:59:56.774Z,77.43
2023-04-18T23:02:24.555Z,77.03
2023-04-18T23:04:51.405Z,77.60
2023-04-18T23:07:18.035Z,77.29
2023-04-18T23:09:45.141Z,77.17
2023-04-18T23:12:11.641Z,77.32
2023-04-18T23:14:38.941Z,77.69
2023-04-18T23:17:05.576Z,77.77
2023-04-18T23:19:32.047Z,77.30
2023-04-18T23:21:59.844Z,77.50
2023-04-18T23:24:26.881Z,77.98
2023-04-18T23:26:53.426Z,77.36
2023-04-18T23:29:19.961Z,78.25
2023-04-18T23:31:46.545Z,78.31
2023-04-18T23:34:13.265Z,78.38
2023-04-18T23:36:40.581Z,77.85
2023-04-18T23:39:08.431Z,78.42
2023-04-18T23:41:34.902Z,78.29
2023-04-18T23:44:01.415Z,78.08
2023-04-18T23:46:27.985Z,78.14
2023-04-18T23:48:54.662Z,78.70
2023-04-18T23:51:21.168Z,78.60
2023-04-18T23:53:47.796Z,79.10
2023-04-18T23:56:14.327Z,79.04
2023-04-18T23:58:40.918Z,79.50
